Providence, Rhode Island
Traffic Map
Current Weather Conditions
Providence, Rhode Island
Overcast Moderate Fog
Overcast
22°
Feels Like: 22°
Wind Chill: 22° Ceiling: 200
Heat Index: 22° Visibility: 0.5mi
Dew Point: 22° Wind: 5mph
Humidity: 100% Direction: 190° (S)
Pressure: 29.93in Gusts: 0mph
Raw Report DataKPVD 021051Z 19004KT 1/2SM R05/2200V3500FT FG VV002 22/22 A2993 RMK AO2 SLP133 T02170217 $
Traffic Incident Summary
Active as of:
Severity:
Category:
InformationThere was an issue retrieving the traffic information for this location. Please try a different location or try again shortly.
Advertisements
Track Severe Weather on mobile